sensor_id;sensor_type;location;lat;lon;timestamp;temperature;humidity
40868;DHT22;26586;50.708;22.412;2023-04-01T00:01:03;17.50;54.80
40868;DHT22;26586;50.708;22.412;2023-04-01T00:03:29;17.40;54.50
40868;DHT22;26586;50.708;22.412;2023-04-01T00:05:57;17.40;54.40
40868;DHT22;26586;50.708;22.412;2023-04-01T00:08:24;17.40;54.40
40868;DHT22;26586;50.708;22.412;2023-04-01T00:10:50;17.40;54.40
40868;DHT22;26586;50.708;22.412;2023-04-01T00:13:16;17.40;54.50
40868;DHT22;26586;50.708;22.412;2023-04-01T00:15:43;17.40;54.70
40868;DHT22;26586;50.708;22.412;2023-04-01T00:18:10;17.40;54.70
40868;DHT22;26586;50.708;22.412;2023-04-01T00:20:36;17.40;54.50
40868;DHT22;26586;50.708;22.412;2023-04-01T00:23:03;17.40;54.50
40868;DHT22;26586;50.708;22.412;2023-04-01T00:25:30;17.40;54.80
40868;DHT22;26586;50.708;22.412;2023-04-01T00:27:57;17.30;55.20
40868;DHT22;26586;50.708;22.412;2023-04-01T00:30:23;17.30;55.00
40868;DHT22;26586;50.708;22.412;2023-04-01T00:32:52;17.30;55.40
40868;DHT22;26586;50.708;22.412;2023-04-01T00:35:19;17.30;55.20
40868;DHT22;26586;50.708;22.412;2023-04-01T00:37:46;17.30;55.30
40868;DHT22;26586;50.708;22.412;2023-04-01T00:42:55;17.30;55.10
40868;DHT22;26586;50.708;22.412;2023-04-01T00:45:29;17.30;55.10
40868;DHT22;26586;50.708;22.412;2023-04-01T00:47:56;17.30;54.90
40868;DHT22;26586;50.708;22.412;2023-04-01T00:50:26;17.30;55.20
40868;DHT22;26586;50.708;22.412;2023-04-01T00:52:53;17.30;55.10
40868;DHT22;26586;50.708;22.412;2023-04-01T00:55:20;17.30;55.10
40868;DHT22;26586;50.708;22.412;2023-04-01T00:57:48;17.30;55.20
40868;DHT22;26586;50.708;22.412;2023-04-01T01:00:16;17.20;55.20
40868;DHT22;26586;50.708;22.412;2023-04-01T01:02:45;17.20;55.80
40868;DHT22;26586;50.708;22.412;2023-04-01T01:05:14;17.20;55.00
40868;DHT22;26586;50.708;22.412;2023-04-01T01:08:13;17.20;55.10
40868;DHT22;26586;50.708;22.412;2023-04-01T01:10:43;17.20;55.60
40868;DHT22;26586;50.708;22.412;2023-04-01T01:13:40;17.20;55.40
40868;DHT22;26586;50.708;22.412;2023-04-01T01:16:28;17.10;55.20
40868;DHT22;26586;50.708;22.412;2023-04-01T01:22:15;17.10;54.80
40868;DHT22;26586;50.708;22.412;2023-04-01T01:27:31;17.10;55.00
40868;DHT22;26586;50.708;22.412;2023-04-01T01:30:05;17.10;54.80
40868;DHT22;26586;50.708;22.412;2023-04-01T01:35:44;17.10;55.00
40868;DHT22;26586;50.708;22.412;2023-04-01T01:38:22;17.10;55.00
40868;DHT22;26586;50.708;22.412;2023-04-01T01:40:50;17.00;54.60
40868;DHT22;26586;50.708;22.412;2023-04-01T01:43:31;17.00;54.70
40868;DHT22;26586;50.708;22.412;2023-04-01T01:46:02;17.00;55.00
40868;DHT22;26586;50.708;22.412;2023-04-01T01:48:31;17.00;55.00
40868;DHT22;26586;50.708;22.412;2023-04-01T01:50:59;17.00;55.40
40868;DHT22;26586;50.708;22.412;2023-04-01T01:53:25;17.00;55.60
40868;DHT22;26586;50.708;22.412;2023-04-01T01:55:51;17.00;55.50
40868;DHT22;26586;50.708;22.412;2023-04-01T01:58:28;17.00;55.50
40868;DHT22;26586;50.708;22.412;2023-04-01T02:01:04;16.90;55.50
40868;DHT22;26586;50.708;22.412;2023-04-01T02:03:35;17.00;55.60
40868;DHT22;26586;50.708;22.412;2023-04-01T02:06:05;16.90;55.80
40868;DHT22;26586;50.708;22.412;2023-04-01T02:08:45;16.90;55.90
40868;DHT22;26586;50.708;22.412;2023-04-01T02:11:16;17.00;55.80
40868;DHT22;26586;50.708;22.412;2023-04-01T02:13:47;16.90;55.70
40868;DHT22;26586;50.708;22.412;2023-04-01T02:19:19;16.90;55.30
40868;DHT22;26586;50.708;22.412;2023-04-01T02:21:55;16.90;55.40
40868;DHT22;26586;50.708;22.412;2023-04-01T02:24:23;16.90;55.30
40868;DHT22;26586;50.708;22.412;2023-04-01T02:26:51;16.90;55.20
40868;DHT22;26586;50.708;22.412;2023-04-01T02:29:20;16.90;55.20
40868;DHT22;26586;50.708;22.412;2023-04-01T02:31:47;16.90;55.20
40868;DHT22;26586;50.708;22.412;2023-04-01T02:34:13;16.80;55.30
40868;DHT22;26586;50.708;22.412;2023-04-01T02:36:40;16.80;55.10
40868;DHT22;26586;50.708;22.412;2023-04-01T02:39:07;16.90;55.30
40868;DHT22;26586;50.708;22.412;2023-04-01T02:41:42;16.80;55.30
40868;DHT22;26586;50.708;22.412;2023-04-01T02:44:10;16.80;55.70
40868;DHT22;26586;50.708;22.412;2023-04-01T02:46:36;16.80;55.50
40868;DHT22;26586;50.708;22.412;2023-04-01T02:49:03;16.80;55.30
40868;DHT22;26586;50.708;22.412;2023-04-01T02:51:30;16.80;55.40
40868;DHT22;26586;50.708;22.412;2023-04-01T02:53:56;16.80;55.10
40868;DHT22;26586;50.708;22.412;2023-04-01T02:56:22;16.70;55.30
40868;DHT22;26586;50.708;22.412;2023-04-01T02:58:48;16.80;55.30
40868;DHT22;26586;50.708;22.412;2023-04-01T03:01:14;16.80;55.30
40868;DHT22;26586;50.708;22.412;2023-04-01T03:03:41;16.70;55.00
40868;DHT22;26586;50.708;22.412;2023-04-01T03:06:12;16.70;54.90
40868;DHT22;26586;50.708;22.412;2023-04-01T03:08:39;16.70;55.20
40868;DHT22;26586;50.708;22.412;2023-04-01T03:11:05;16.70;55.10
40868;DHT22;26586;50.708;22.412;2023-04-01T03:13:32;16.70;55.00
40868;DHT22;26586;50.708;22.412;2023-04-01T03:15:58;16.70;55.40
40868;DHT22;26586;50.708;22.412;2023-04-01T03:18:24;16.70;55.00
40868;DHT22;26586;50.708;22.412;2023-04-01T03:20:50;16.70;55.10
40868;DHT22;26586;50.708;22.412;2023-04-01T03:23:17;16.60;55.60
40868;DHT22;26586;50.708;22.412;2023-04-01T03:25:45;16.60;55.80
40868;DHT22;26586;50.708;22.412;2023-04-01T03:28:12;16.70;55.40
40868;DHT22;26586;50.708;22.412;2023-04-01T03:30:39;16.60;55.60
40868;DHT22;26586;50.708;22.412;2023-04-01T03:33:06;16.60;55.10
40868;DHT22;26586;50.708;22.412;2023-04-01T03:35:32;16.60;55.30
40868;DHT22;26586;50.708;22.412;2023-04-01T03:37:58;16.60;55.60
40868;DHT22;26586;50.708;22.412;2023-04-01T03:40:25;16.60;56.30
40868;DHT22;26586;50.708;22.412;2023-04-01T03:42:52;16.60;56.00
40868;DHT22;26586;50.708;22.412;2023-04-01T03:45:18;16.60;56.10
40868;DHT22;26586;50.708;22.412;2023-04-01T03:47:45;16.60;56.00
40868;DHT22;26586;50.708;22.412;2023-04-01T03:50:11;16.60;56.10
40868;DHT22;26586;50.708;22.412;2023-04-01T03:52:37;16.50;56.00
40868;DHT22;26586;50.708;22.412;2023-04-01T03:55:03;16.60;56.10
40868;DHT22;26586;50.708;22.412;2023-04-01T03:57:33;16.60;56.80
40868;DHT22;26586;50.708;22.412;2023-04-01T03:59:59;16.50;56.10
40868;DHT22;26586;50.708;22.412;2023-04-01T04:02:25;16.50;56.30
40868;DHT22;26586;50.708;22.412;2023-04-01T04:04:51;16.50;56.10
40868;DHT22;26586;50.708;22.412;2023-04-01T04:07:18;16.50;56.10
40868;DHT22;26586;50.708;22.412;2023-04-01T04:09:44;16.50;56.60
40868;DHT22;26586;50.708;22.412;2023-04-01T04:12:10;16.50;58.20
40868;DHT22;26586;50.708;22.412;2023-04-01T04:14:37;16.50;60.20
40868;DHT22;26586;50.708;22.412;2023-04-01T04:17:03;16.50;58.20
40868;DHT22;26586;50.708;22.412;2023-04-01T04:19:32;16.50;58.20
40868;DHT22;26586;50.708;22.412;2023-04-01T04:21:59;16.50;58.40
40868;DHT22;26586;50.708;22.412;2023-04-01T04:24:26;16.50;57.50
40868;DHT22;26586;50.708;22.412;2023-04-01T04:26:53;16.50;57.20
40868;DHT22;26586;50.708;22.412;2023-04-01T04:29:19;16.50;57.20
40868;DHT22;26586;50.708;22.412;2023-04-01T04:31:46;16.50;57.90
40868;DHT22;26586;50.708;22.412;2023-04-01T04:34:12;16.50;57.70
40868;DHT22;26586;50.708;22.412;2023-04-01T04:36:38;16.50;57.90
40868;DHT22;26586;50.708;22.412;2023-04-01T04:39:04;16.50;57.60
40868;DHT22;26586;50.708;22.412;2023-04-01T04:41:30;16.50;58.40
40868;DHT22;26586;50.708;22.412;2023-04-01T04:43:57;16.50;59.00
40868;DHT22;26586;50.708;22.412;2023-04-01T04:46:24;16.50;59.60
40868;DHT22;26586;50.708;22.412;2023-04-01T04:48:50;16.60;59.80
40868;DHT22;26586;50.708;22.412;2023-04-01T04:51:18;16.60;60.30
40868;DHT22;26586;50.708;22.412;2023-04-01T04:53:46;16.60;60.80
40868;DHT22;26586;50.708;22.412;2023-04-01T04:56:16;16.60;61.30
40868;DHT22;26586;50.708;22.412;2023-04-01T04:58:42;16.60;61.60
40868;DHT22;26586;50.708;22.412;2023-04-01T05:01:10;16.70;62.60
40868;DHT22;26586;50.708;22.412;2023-04-01T05:03:37;16.70;62.50
40868;DHT22;26586;50.708;22.412;2023-04-01T05:06:04;16.70;62.60
40868;DHT22;26586;50.708;22.412;2023-04-01T05:08:30;16.80;62.60
40868;DHT22;26586;50.708;22.412;2023-04-01T05:10:59;16.80;63.30
40868;DHT22;26586;50.708;22.412;2023-04-01T05:13:25;16.80;63.10
40868;DHT22;26586;50.708;22.412;2023-04-01T05:15:51;16.90;62.90
40868;DHT22;26586;50.708;22.412;2023-04-01T05:18:18;16.90;63.70
40868;DHT22;26586;50.708;22.412;2023-04-01T05:20:52;16.90;65.10
40868;DHT22;26586;50.708;22.412;2023-04-01T05:23:19;17.00;63.60
40868;DHT22;26586;50.708;22.412;2023-04-01T05:25:50;17.00;62.70
40868;DHT22;26586;50.708;22.412;2023-04-01T05:28:19;17.00;62.30
40868;DHT22;26586;50.708;22.412;2023-04-01T05:30:46;17.00;62.00
40868;DHT22;26586;50.708;22.412;2023-04-01T05:33:12;17.00;61.20
40868;DHT22;26586;50.708;22.412;2023-04-01T05:35:40;17.10;62.30
40868;DHT22;26586;50.708;22.412;2023-04-01T05:38:06;17.10;61.10
40868;DHT22;26586;50.708;22.412;2023-04-01T05:40:33;17.10;62.80
40868;DHT22;26586;50.708;22.412;2023-04-01T05:42:59;17.10;61.40
40868;DHT22;26586;50.708;22.412;2023-04-01T05:45:27;17.20;60.80
40868;DHT22;26586;50.708;22.412;2023-04-01T05:47:55;17.20;61.50
40868;DHT22;26586;50.708;22.412;2023-04-01T05:50:21;17.20;60.20
40868;DHT22;26586;50.708;22.412;2023-04-01T05:52:47;17.10;59.60
40868;DHT22;26586;50.708;22.412;2023-04-01T05:55:14;17.10;59.50
40868;DHT22;26586;50.708;22.412;2023-04-01T05:57:40;17.20;58.80
40868;DHT22;26586;50.708;22.412;2023-04-01T06:00:06;17.10;59.10
40868;DHT22;26586;50.708;22.412;2023-04-01T06:02:33;17.20;59.20
40868;DHT22;26586;50.708;22.412;2023-04-01T06:07:37;17.10;59.10
40868;DHT22;26586;50.708;22.412;2023-04-01T06:10:20;17.10;58.20
40868;DHT22;26586;50.708;22.412;2023-04-01T06:13:09;17.10;58.70
40868;DHT22;26586;50.708;22.412;2023-04-01T06:18:54;17.10;58.70
40868;DHT22;26586;50.708;22.412;2023-04-01T06:32:43;17.20;58.40
40868;DHT22;26586;50.708;22.412;2023-04-01T06:49:44;17.30;63.50
40868;DHT22;26586;50.708;22.412;2023-04-01T06:57:58;17.40;66.40
40868;DHT22;26586;50.708;22.412;2023-04-01T07:00:32;17.50;63.10
40868;DHT22;26586;50.708;22.412;2023-04-01T07:03:26;17.50;63.20
40868;DHT22;26586;50.708;22.412;2023-04-01T07:06:04;17.50;62.90
40868;DHT22;26586;50.708;22.412;2023-04-01T07:08:34;17.60;62.50
40868;DHT22;26586;50.708;22.412;2023-04-01T07:11:06;17.60;61.80
40868;DHT22;26586;50.708;22.412;2023-04-01T07:16:45;17.70;60.60
40868;DHT22;26586;50.708;22.412;2023-04-01T07:19:29;17.80;60.70
40868;DHT22;26586;50.708;22.412;2023-04-01T07:24:48;17.90;56.90
40868;DHT22;26586;50.708;22.412;2023-04-01T07:27:15;18.00;58.10
40868;DHT22;26586;50.708;22.412;2023-04-01T07:29:41;18.00;57.40
40868;DHT22;26586;50.708;22.412;2023-04-01T07:38:00;18.20;57.60
40868;DHT22;26586;50.708;22.412;2023-04-01T07:40:48;18.30;56.70
40868;DHT22;26586;50.708;22.412;2023-04-01T07:49:25;18.50;56.50
40868;DHT22;26586;50.708;22.412;2023-04-01T07:57:51;18.70;56.40
40868;DHT22;26586;50.708;22.412;2023-04-01T08:05:46;18.80;55.60
40868;DHT22;26586;50.708;22.412;2023-04-01T08:22:29;19.10;53.30
40868;DHT22;26586;50.708;22.412;2023-04-01T08:24:58;19.10;53.60
40868;DHT22;26586;50.708;22.412;2023-04-01T08:27:37;19.20;53.80
40868;DHT22;26586;50.708;22.412;2023-04-01T08:30:24;19.20;53.80
40868;DHT22;26586;50.708;22.412;2023-04-01T08:32:58;19.20;53.60
40868;DHT22;26586;50.708;22.412;2023-04-01T08:35:30;19.20;53.40
40868;DHT22;26586;50.708;22.412;2023-04-01T08:38:01;19.30;53.30
40868;DHT22;26586;50.708;22.412;2023-04-01T08:49:18;19.30;52.60
40868;DHT22;26586;50.708;22.412;2023-04-01T09:00:30;19.40;52.40
40868;DHT22;26586;50.708;22.412;2023-04-01T09:14:15;19.50;52.60
40868;DHT22;26586;50.708;22.412;2023-04-01T09:22:50;19.60;53.00
40868;DHT22;26586;50.708;22.412;2023-04-01T09:31:17;19.70;52.90
40868;DHT22;26586;50.708;22.412;2023-04-01T09:44:59;19.90;52.00
40868;DHT22;26586;50.708;22.412;2023-04-01T09:48:00;19.90;51.50
40868;DHT22;26586;50.708;22.412;2023-04-01T09:56:23;20.00;50.90
40868;DHT22;26586;50.708;22.412;2023-04-01T10:04:54;20.10;50.60
40868;DHT22;26586;50.708;22.412;2023-04-01T10:11:14;20.10;50.20
40868;DHT22;26586;50.708;22.412;2023-04-01T10:47:40;20.20;48.80
40868;DHT22;26586;50.708;22.412;2023-04-01T10:53:10;20.20;48.50
40868;DHT22;26586;50.708;22.412;2023-04-01T11:07:01;20.20;48.40
40868;DHT22;26586;50.708;22.412;2023-04-01T11:13:03;20.20;47.50
40868;DHT22;26586;50.708;22.412;2023-04-01T11:18:57;20.20;47.80
40868;DHT22;26586;50.708;22.412;2023-04-01T11:41:09;20.20;49.50
40868;DHT22;26586;50.708;22.412;2023-04-01T11:44:06;20.20;50.10
40868;DHT22;26586;50.708;22.412;2023-04-01T11:52:27;20.20;50.20
40868;DHT22;26586;50.708;22.412;2023-04-01T11:55:06;20.20;50.10
40868;DHT22;26586;50.708;22.412;2023-04-01T12:12:20;20.10;51.10
40868;DHT22;26586;50.708;22.412;2023-04-01T12:17:50;20.00;51.80
40868;DHT22;26586;50.708;22.412;2023-04-01T12:20:33;20.00;52.00
40868;DHT22;26586;50.708;22.412;2023-04-01T12:23:29;19.90;52.30
40868;DHT22;26586;50.708;22.412;2023-04-01T12:33:43;19.90;53.20
40868;DHT22;26586;50.708;22.412;2023-04-01T13:13:05;19.80;50.40
40868;DHT22;26586;50.708;22.412;2023-04-01T13:15:58;19.70;51.00
40868;DHT22;26586;50.708;22.412;2023-04-01T13:18:40;19.80;51.10
40868;DHT22;26586;50.708;22.412;2023-04-01T13:21:48;19.80;51.50
40868;DHT22;26586;50.708;22.412;2023-04-01T13:27:40;19.80;52.10
40868;DHT22;26586;50.708;22.412;2023-04-01T13:36:11;19.80;53.40
40868;DHT22;26586;50.708;22.412;2023-04-01T13:45:20;19.70;52.60
40868;DHT22;26586;50.708;22.412;2023-04-01T13:53:57;19.70;52.80
40868;DHT22;26586;50.708;22.412;2023-04-01T13:57:14;19.70;53.00
40868;DHT22;26586;50.708;22.412;2023-04-01T14:00:10;19.60;53.20
40868;DHT22;26586;50.708;22.412;2023-04-01T14:08:22;19.60;53.40
40868;DHT22;26586;50.708;22.412;2023-04-01T14:16:51;19.50;53.70
40868;DHT22;26586;50.708;22.412;2023-04-01T14:22:53;19.50;53.90
40868;DHT22;26586;50.708;22.412;2023-04-01T14:28:21;19.40;54.00
40868;DHT22;26586;50.708;22.412;2023-04-01T14:33:21;19.40;54.20
40868;DHT22;26586;50.708;22.412;2023-04-01T14:36:39;19.30;54.40
40868;DHT22;26586;50.708;22.412;2023-04-01T14:44:28;19.30;55.20
40868;DHT22;26586;50.708;22.412;2023-04-01T14:50:12;19.30;55.60
40868;DHT22;26586;50.708;22.412;2023-04-01T15:10:12;19.30;56.80
40868;DHT22;26586;50.708;22.412;2023-04-01T15:21:50;19.30;56.90
40868;DHT22;26586;50.708;22.412;2023-04-01T15:27:40;19.30;57.10
40868;DHT22;26586;50.708;22.412;2023-04-01T15:31:11;19.30;56.60
40868;DHT22;26586;50.708;22.412;2023-04-01T15:39:16;19.30;56.50
40868;DHT22;26586;50.708;22.412;2023-04-01T15:46:58;19.40;56.90
40868;DHT22;26586;50.708;22.412;2023-04-01T15:49:37;19.30;56.60
40868;DHT22;26586;50.708;22.412;2023-04-01T15:52:10;19.30;57.00
40868;DHT22;26586;50.708;22.412;2023-04-01T15:55:00;19.40;56.90
40868;DHT22;26586;50.708;22.412;2023-04-01T15:57:49;19.30;56.30
40868;DHT22;26586;50.708;22.412;2023-04-01T16:09:02;19.40;55.80
40868;DHT22;26586;50.708;22.412;2023-04-01T16:33:11;19.40;55.50
40868;DHT22;26586;50.708;22.412;2023-04-01T16:41:19;19.40;55.00
40868;DHT22;26586;50.708;22.412;2023-04-01T16:44:27;19.40;55.00
40868;DHT22;26586;50.708;22.412;2023-04-01T16:46:59;19.40;54.70
40868;DHT22;26586;50.708;22.412;2023-04-01T16:49:33;19.40;55.00
40868;DHT22;26586;50.708;22.412;2023-04-01T17:02:14;19.30;54.90
40868;DHT22;26586;50.708;22.412;2023-04-01T17:05:03;19.30;55.00
40868;DHT22;26586;50.708;22.412;2023-04-01T17:07:47;19.30;55.10
40868;DHT22;26586;50.708;22.412;2023-04-01T17:10:46;19.30;54.50
40868;DHT22;26586;50.708;22.412;2023-04-01T17:19:29;19.20;53.80
40868;DHT22;26586;50.708;22.412;2023-04-01T17:25:10;19.20;53.90
40868;DHT22;26586;50.708;22.412;2023-04-01T17:30:30;19.20;53.90
40868;DHT22;26586;50.708;22.412;2023-04-01T17:39:13;19.10;54.10
40868;DHT22;26586;50.708;22.412;2023-04-01T17:45:01;19.10;54.20
40868;DHT22;26586;50.708;22.412;2023-04-01T17:52:39;19.00;54.50
40868;DHT22;26586;50.708;22.412;2023-04-01T18:01:12;18.90;54.60
40868;DHT22;26586;50.708;22.412;2023-04-01T18:06:34;18.90;54.80
40868;DHT22;26586;50.708;22.412;2023-04-01T18:11:34;18.90;54.70
40868;DHT22;26586;50.708;22.412;2023-04-01T18:17:08;18.80;54.60
40868;DHT22;26586;50.708;22.412;2023-04-01T18:22:41;18.80;54.90
40868;DHT22;26586;50.708;22.412;2023-04-01T18:30:49;18.80;54.80
40868;DHT22;26586;50.708;22.412;2023-04-01T18:33:37;18.80;54.80
40868;DHT22;26586;50.708;22.412;2023-04-01T18:36:15;18.70;54.90
40868;DHT22;26586;50.708;22.412;2023-04-01T18:38:56;18.80;55.00
40868;DHT22;26586;50.708;22.412;2023-04-01T18:41:40;18.70;55.10
40868;DHT22;26586;50.708;22.412;2023-04-01T18:47:59;18.70;55.20
40868;DHT22;26586;50.708;22.412;2023-04-01T18:50:27;18.70;55.40
40868;DHT22;26586;50.708;22.412;2023-04-01T18:53:08;18.70;55.40
40868;DHT22;26586;50.708;22.412;2023-04-01T18:56:44;18.70;55.50
40868;DHT22;26586;50.708;22.412;2023-04-01T19:05:11;18.60;55.60
40868;DHT22;26586;50.708;22.412;2023-04-01T19:07:47;18.60;55.60
40868;DHT22;26586;50.708;22.412;2023-04-01T19:21:14;18.50;57.20
40868;DHT22;26586;50.708;22.412;2023-04-01T19:24:39;18.60;57.10
40868;DHT22;26586;50.708;22.412;2023-04-01T19:27:09;18.60;56.40
40868;DHT22;26586;50.708;22.412;2023-04-01T19:29:47;18.50;55.90
40868;DHT22;26586;50.708;22.412;2023-04-01T19:35:19;18.50;56.10
40868;DHT22;26586;50.708;22.412;2023-04-01T19:37:57;18.50;55.80
40868;DHT22;26586;50.708;22.412;2023-04-01T19:46:20;18.50;55.90
40868;DHT22;26586;50.708;22.412;2023-04-01T19:49:10;18.40;55.70
40868;DHT22;26586;50.708;22.412;2023-04-01T19:57:17;18.40;56.00
40868;DHT22;26586;50.708;22.412;2023-04-01T20:00:36;18.40;56.10
40868;DHT22;26586;50.708;22.412;2023-04-01T20:02:46;18.40;56.00
40868;DHT22;26586;50.708;22.412;2023-04-01T20:08:04;18.40;56.40
40868;DHT22;26586;50.708;22.412;2023-04-01T20:10:44;18.30;56.20
40868;DHT22;26586;50.708;22.412;2023-04-01T20:13:32;18.30;56.50
40868;DHT22;26586;50.708;22.412;2023-04-01T20:16:07;18.30;56.30
40868;DHT22;26586;50.708;22.412;2023-04-01T20:18:56;18.30;56.40
40868;DHT22;26586;50.708;22.412;2023-04-01T20:21:49;18.30;56.60
40868;DHT22;26586;50.708;22.412;2023-04-01T20:24:18;18.30;56.80
40868;DHT22;26586;50.708;22.412;2023-04-01T20:26:58;18.30;56.70
40868;DHT22;26586;50.708;22.412;2023-04-01T20:29:47;18.30;56.60
40868;DHT22;26586;50.708;22.412;2023-04-01T20:32:54;18.30;56.70
40868;DHT22;26586;50.708;22.412;2023-04-01T20:38:32;18.30;56.60
40868;DHT22;26586;50.708;22.412;2023-04-01T20:41:07;18.20;56.80
40868;DHT22;26586;50.708;22.412;2023-04-01T20:46:30;18.20;56.80
40868;DHT22;26586;50.708;22.412;2023-04-01T20:54:57;18.20;56.80
40868;DHT22;26586;50.708;22.412;2023-04-01T21:08:39;18.10;56.90
40868;DHT22;26586;50.708;22.412;2023-04-01T21:11:22;18.10;57.00
40868;DHT22;26586;50.708;22.412;2023-04-01T21:20:07;18.10;57.00
40868;DHT22;26586;50.708;22.412;2023-04-01T21:23:21;18.10;57.00
40868;DHT22;26586;50.708;22.412;2023-04-01T21:26:26;18.00;57.30
40868;DHT22;26586;50.708;22.412;2023-04-01T21:54:50;17.90;57.20
40868;DHT22;26586;50.708;22.412;2023-04-01T22:08:34;17.90;56.90
40868;DHT22;26586;50.708;22.412;2023-04-01T22:12:22;17.80;56.90
40868;DHT22;26586;50.708;22.412;2023-04-01T22:17:42;17.80;56.80
40868;DHT22;26586;50.708;22.412;2023-04-01T22:23:06;17.80;56.70
40868;DHT22;26586;50.708;22.412;2023-04-01T22:26:06;17.80;56.70
40868;DHT22;26586;50.708;22.412;2023-04-01T22:31:19;17.70;56.80
40868;DHT22;26586;50.708;22.412;2023-04-01T22:42:53;17.70;57.00
40868;DHT22;26586;50.708;22.412;2023-04-01T22:54:20;17.60;57.20
40868;DHT22;26586;50.708;22.412;2023-04-01T22:57:32;17.60;57.30
40868;DHT22;26586;50.708;22.412;2023-04-01T23:00:12;17.60;57.40
40868;DHT22;26586;50.708;22.412;2023-04-01T23:03:00;17.60;57.30
40868;DHT22;26586;50.708;22.412;2023-04-01T23:05:54;17.60;57.40
40868;DHT22;26586;50.708;22.412;2023-04-01T23:11:46;17.50;57.30
40868;DHT22;26586;50.708;22.412;2023-04-01T23:25:22;17.50;57.70
40868;DHT22;26586;50.708;22.412;2023-04-01T23:28:17;17.50;58.60
40868;DHT22;26586;50.708;22.412;2023-04-01T23:35:55;17.50;61.20
40868;DHT22;26586;50.708;22.412;2023-04-01T23:38:24;17.50;65.20
40868;DHT22;26586;50.708;22.412;2023-04-01T23:40:53;17.50;68.80
40868;DHT22;26586;50.708;22.412;2023-04-01T23:43:40;17.50;68.50
40868;DHT22;26586;50.708;22.412;2023-04-01T23:46:08;17.50;69.40
40868;DHT22;26586;50.708;22.412;2023-04-01T23:48:43;17.50;65.90
40868;DHT22;26586;50.708;22.412;2023-04-01T23:51:21;17.50;65.70
40868;DHT22;26586;50.708;22.412;2023-04-01T23:56:55;17.50;65.50
40868;DHT22;26586;50.708;22.412;2023-04-01T23:59:35;17.50;65.40
